sensor_id;sensor_type;location;lat;lon;timestamp;P1;P2;P0
64627;PMS5003;59036;50.960;0.314;2022-07-22T00:01:53;6;6;
64627;PMS5003;59036;50.960;0.314;2022-07-22T00:04:20;6;6;
64627;PMS5003;59036;50.960;0.314;2022-07-22T00:06:47;6;5;
64627;PMS5003;59036;50.960;0.314;2022-07-22T00:09:14;7;6;
64627;PMS5003;59036;50.960;0.314;2022-07-22T00:11:42;6;6;
64627;PMS5003;59036;50.960;0.314;2022-07-22T00:14:09;5;5;
64627;PMS5003;59036;50.960;0.314;2022-07-22T00:16:36;6;6;
64627;PMS5003;59036;50.960;0.314;2022-07-22T00:19:03;6;5;
64627;PMS5003;59036;50.960;0.314;2022-07-22T00:21:31;8;6;
64627;PMS5003;59036;50.960;0.314;2022-07-22T00:23:58;6;5;
64627;PMS5003;59036;50.960;0.314;2022-07-22T00:26:27;6;5;
64627;PMS5003;59036;50.960;0.314;2022-07-22T00:28:54;6;6;
64627;PMS5003;59036;50.960;0.314;2022-07-22T00:31:21;6;5;
64627;PMS5003;59036;50.960;0.314;2022-07-22T00:33:48;6;5;
64627;PMS5003;59036;50.960;0.314;2022-07-22T00:36:15;6;6;
64627;PMS5003;59036;50.960;0.314;2022-07-22T00:38:42;5;5;
64627;PMS5003;59036;50.960;0.314;2022-07-22T00:41:10;5;5;
64627;PMS5003;59036;50.960;0.314;2022-07-22T00:43:54;4;4;
64627;PMS5003;59036;50.960;0.314;2022-07-22T00:46:24;7;6;
64627;PMS5003;59036;50.960;0.314;2022-07-22T00:48:52;6;6;
64627;PMS5003;59036;50.960;0.314;2022-07-22T00:51:21;4;4;
64627;PMS5003;59036;50.960;0.314;2022-07-22T00:53:50;4;4;
64627;PMS5003;59036;50.960;0.314;2022-07-22T00:56:18;4;4;
64627;PMS5003;59036;50.960;0.314;2022-07-22T00:58:46;4;4;
64627;PMS5003;59036;50.960;0.314;2022-07-22T01:01:15;6;6;
64627;PMS5003;59036;50.960;0.314;2022-07-22T01:03:43;4;4;
64627;PMS5003;59036;50.960;0.314;2022-07-22T01:06:10;5;5;
64627;PMS5003;59036;50.960;0.314;2022-07-22T01:08:38;5;4;
64627;PMS5003;59036;50.960;0.314;2022-07-22T01:11:07;6;6;
64627;PMS5003;59036;50.960;0.314;2022-07-22T01:13:35;7;6;
64627;PMS5003;59036;50.960;0.314;2022-07-22T01:16:08;7;6;
64627;PMS5003;59036;50.960;0.314;2022-07-22T01:18:36;5;5;
64627;PMS5003;59036;50.960;0.314;2022-07-22T01:21:05;6;5;
64627;PMS5003;59036;50.960;0.314;2022-07-22T01:23:33;6;5;
64627;PMS5003;59036;50.960;0.314;2022-07-22T01:26:01;4;4;
64627;PMS5003;59036;50.960;0.314;2022-07-22T01:28:30;6;5;
64627;PMS5003;59036;50.960;0.314;2022-07-22T01:30:57;5;4;
64627;PMS5003;59036;50.960;0.314;2022-07-22T01:33:24;5;5;
64627;PMS5003;59036;50.960;0.314;2022-07-22T01:35:51;5;4;
64627;PMS5003;59036;50.960;0.314;2022-07-22T01:38:19;5;4;
64627;PMS5003;59036;50.960;0.314;2022-07-22T01:40:46;4;4;
64627;PMS5003;59036;50.960;0.314;2022-07-22T01:43:14;7;3;
64627;PMS5003;59036;50.960;0.314;2022-07-22T01:45:48;5;5;
64627;PMS5003;59036;50.960;0.314;2022-07-22T01:48:17;4;4;
64627;PMS5003;59036;50.960;0.314;2022-07-22T01:50:45;5;4;
64627;PMS5003;59036;50.960;0.314;2022-07-22T01:53:13;4;3;
64627;PMS5003;59036;50.960;0.314;2022-07-22T01:55:41;3;3;
64627;PMS5003;59036;50.960;0.314;2022-07-22T01:58:08;6;5;
64627;PMS5003;59036;50.960;0.314;2022-07-22T02:00:36;7;6;
64627;PMS5003;59036;50.960;0.314;2022-07-22T02:03:04;4;4;
64627;PMS5003;59036;50.960;0.314;2022-07-22T02:05:31;5;4;
64627;PMS5003;59036;50.960;0.314;2022-07-22T02:07:59;5;4;
64627;PMS5003;59036;50.960;0.314;2022-07-22T02:10:27;4;4;
64627;PMS5003;59036;50.960;0.314;2022-07-22T02:12:55;4;4;
64627;PMS5003;59036;50.960;0.314;2022-07-22T02:15:23;4;4;
64627;PMS5003;59036;50.960;0.314;2022-07-22T02:17:50;4;4;
64627;PMS5003;59036;50.960;0.314;2022-07-22T02:20:17;6;4;
64627;PMS5003;59036;50.960;0.314;2022-07-22T02:22:44;5;5;
64627;PMS5003;59036;50.960;0.314;2022-07-22T02:25:11;4;4;
64627;PMS5003;59036;50.960;0.314;2022-07-22T02:27:38;3;3;
64627;PMS5003;59036;50.960;0.314;2022-07-22T02:30:07;5;5;
64627;PMS5003;59036;50.960;0.314;2022-07-22T02:32:35;5;4;
64627;PMS5003;59036;50.960;0.314;2022-07-22T02:35:02;5;3;
64627;PMS5003;59036;50.960;0.314;2022-07-22T02:37:31;7;7;
64627;PMS5003;59036;50.960;0.314;2022-07-22T02:39:58;3;3;
64627;PMS5003;59036;50.960;0.314;2022-07-22T02:42:25;6;5;
64627;PMS5003;59036;50.960;0.314;2022-07-22T02:44:52;3;3;
64627;PMS5003;59036;50.960;0.314;2022-07-22T02:47:19;4;4;
64627;PMS5003;59036;50.960;0.314;2022-07-22T02:49:46;4;3;
64627;PMS5003;59036;50.960;0.314;2022-07-22T02:52:13;3;3;
64627;PMS5003;59036;50.960;0.314;2022-07-22T02:54:40;4;4;
64627;PMS5003;59036;50.960;0.314;2022-07-22T02:57:07;3;3;
64627;PMS5003;59036;50.960;0.314;2022-07-22T02:59:35;5;4;
64627;PMS5003;59036;50.960;0.314;2022-07-22T03:02:02;4;4;
64627;PMS5003;59036;50.960;0.314;2022-07-22T03:04:30;3;3;
64627;PMS5003;59036;50.960;0.314;2022-07-22T03:06:57;5;4;
64627;PMS5003;59036;50.960;0.314;2022-07-22T03:09:24;5;5;
64627;PMS5003;59036;50.960;0.314;2022-07-22T03:11:51;4;4;
64627;PMS5003;59036;50.960;0.314;2022-07-22T03:14:18;5;5;
64627;PMS5003;59036;50.960;0.314;2022-07-22T03:16:45;3;3;
64627;PMS5003;59036;50.960;0.314;2022-07-22T03:19:12;4;4;
64627;PMS5003;59036;50.960;0.314;2022-07-22T03:21:39;5;4;
64627;PMS5003;59036;50.960;0.314;2022-07-22T03:24:06;5;4;
64627;PMS5003;59036;50.960;0.314;2022-07-22T03:26:33;3;3;
64627;PMS5003;59036;50.960;0.314;2022-07-22T03:29:00;4;4;
64627;PMS5003;59036;50.960;0.314;2022-07-22T03:31:27;4;4;
64627;PMS5003;59036;50.960;0.314;2022-07-22T03:33:54;5;4;
64627;PMS5003;59036;50.960;0.314;2022-07-22T03:36:21;3;3;
64627;PMS5003;59036;50.960;0.314;2022-07-22T03:38:48;5;4;
64627;PMS5003;59036;50.960;0.314;2022-07-22T03:41:15;3;3;
64627;PMS5003;59036;50.960;0.314;2022-07-22T03:43:42;3;3;
64627;PMS5003;59036;50.960;0.314;2022-07-22T03:46:09;3;3;
64627;PMS5003;59036;50.960;0.314;2022-07-22T03:48:36;2;2;
64627;PMS5003;59036;50.960;0.314;2022-07-22T03:51:04;4;4;
64627;PMS5003;59036;50.960;0.314;2022-07-22T03:53:32;5;4;
64627;PMS5003;59036;50.960;0.314;2022-07-22T03:56:00;4;3;
64627;PMS5003;59036;50.960;0.314;2022-07-22T03:58:26;3;3;
64627;PMS5003;59036;50.960;0.314;2022-07-22T04:00:54;4;4;
64627;PMS5003;59036;50.960;0.314;2022-07-22T04:03:21;3;2;
64627;PMS5003;59036;50.960;0.314;2022-07-22T04:05:48;4;4;
64627;PMS5003;59036;50.960;0.314;2022-07-22T04:08:17;4;4;
64627;PMS5003;59036;50.960;0.314;2022-07-22T04:10:44;4;4;
64627;PMS5003;59036;50.960;0.314;2022-07-22T04:13:11;6;6;
64627;PMS5003;59036;50.960;0.314;2022-07-22T04:15:39;3;3;
64627;PMS5003;59036;50.960;0.314;2022-07-22T04:18:06;3;3;
64627;PMS5003;59036;50.960;0.314;2022-07-22T04:20:33;3;3;
64627;PMS5003;59036;50.960;0.314;2022-07-22T04:23:00;6;5;
64627;PMS5003;59036;50.960;0.314;2022-07-22T04:25:27;6;4;
64627;PMS5003;59036;50.960;0.314;2022-07-22T04:27:54;5;4;
64627;PMS5003;59036;50.960;0.314;2022-07-22T04:30:21;4;4;
64627;PMS5003;59036;50.960;0.314;2022-07-22T04:32:48;5;4;
64627;PMS5003;59036;50.960;0.314;2022-07-22T04:35:15;4;4;
64627;PMS5003;59036;50.960;0.314;2022-07-22T04:37:42;5;5;
64627;PMS5003;59036;50.960;0.314;2022-07-22T04:40:09;3;3;
64627;PMS5003;59036;50.960;0.314;2022-07-22T04:42:38;4;4;
64627;PMS5003;59036;50.960;0.314;2022-07-22T04:45:05;4;4;
64627;PMS5003;59036;50.960;0.314;2022-07-22T04:47:33;5;5;
64627;PMS5003;59036;50.960;0.314;2022-07-22T04:50:00;5;5;
64627;PMS5003;59036;50.960;0.314;2022-07-22T04:52:27;4;4;
64627;PMS5003;59036;50.960;0.314;2022-07-22T04:54:54;5;5;
64627;PMS5003;59036;50.960;0.314;2022-07-22T04:57:21;3;3;
64627;PMS5003;59036;50.960;0.314;2022-07-22T04:59:48;4;4;
64627;PMS5003;59036;50.960;0.314;2022-07-22T05:02:15;4;3;
64627;PMS5003;59036;50.960;0.314;2022-07-22T05:04:42;5;5;
64627;PMS5003;59036;50.960;0.314;2022-07-22T05:07:10;6;6;
64627;PMS5003;59036;50.960;0.314;2022-07-22T05:09:37;5;4;
64627;PMS5003;59036;50.960;0.314;2022-07-22T05:12:04;3;3;
64627;PMS5003;59036;50.960;0.314;2022-07-22T05:14:31;6;5;
64627;PMS5003;59036;50.960;0.314;2022-07-22T05:16:58;4;4;
64627;PMS5003;59036;50.960;0.314;2022-07-22T05:19:26;3;3;
64627;PMS5003;59036;50.960;0.314;2022-07-22T05:21:53;4;4;
64627;PMS5003;59036;50.960;0.314;2022-07-22T05:24:20;6;5;
64627;PMS5003;59036;50.960;0.314;2022-07-22T05:26:47;5;5;
64627;PMS5003;59036;50.960;0.314;2022-07-22T05:29:14;5;5;
64627;PMS5003;59036;50.960;0.314;2022-07-22T05:31:41;5;5;
64627;PMS5003;59036;50.960;0.314;2022-07-22T05:34:08;3;3;
64627;PMS5003;59036;50.960;0.314;2022-07-22T05:36:36;2;2;
64627;PMS5003;59036;50.960;0.314;2022-07-22T05:39:03;5;5;
64627;PMS5003;59036;50.960;0.314;2022-07-22T05:41:31;4;4;
64627;PMS5003;59036;50.960;0.314;2022-07-22T05:43:57;3;3;
64627;PMS5003;59036;50.960;0.314;2022-07-22T05:46:24;4;4;
64627;PMS5003;59036;50.960;0.314;2022-07-22T05:48:51;5;5;
64627;PMS5003;59036;50.960;0.314;2022-07-22T05:51:18;3;3;
64627;PMS5003;59036;50.960;0.314;2022-07-22T05:53:45;5;5;
64627;PMS5003;59036;50.960;0.314;2022-07-22T05:56:12;4;4;
64627;PMS5003;59036;50.960;0.314;2022-07-22T05:58:40;3;3;
64627;PMS5003;59036;50.960;0.314;2022-07-22T06:01:08;5;5;
64627;PMS5003;59036;50.960;0.314;2022-07-22T06:03:36;5;5;
64627;PMS5003;59036;50.960;0.314;2022-07-22T06:06:04;5;4;
64627;PMS5003;59036;50.960;0.314;2022-07-22T06:08:32;5;4;
64627;PMS5003;59036;50.960;0.314;2022-07-22T06:10:59;3;3;
64627;PMS5003;59036;50.960;0.314;2022-07-22T06:13:27;5;4;
64627;PMS5003;59036;50.960;0.314;2022-07-22T06:15:54;5;5;
64627;PMS5003;59036;50.960;0.314;2022-07-22T06:18:21;5;4;
64627;PMS5003;59036;50.960;0.314;2022-07-22T06:20:49;2;2;
64627;PMS5003;59036;50.960;0.314;2022-07-22T06:23:16;4;4;
64627;PMS5003;59036;50.960;0.314;2022-07-22T06:25:43;4;4;
64627;PMS5003;59036;50.960;0.314;2022-07-22T06:28:10;4;3;
64627;PMS5003;59036;50.960;0.314;2022-07-22T06:30:37;5;5;
64627;PMS5003;59036;50.960;0.314;2022-07-22T06:33:05;4;4;
64627;PMS5003;59036;50.960;0.314;2022-07-22T06:35:32;3;2;
64627;PMS5003;59036;50.960;0.314;2022-07-22T06:37:59;3;3;
64627;PMS5003;59036;50.960;0.314;2022-07-22T06:40:27;4;4;
64627;PMS5003;59036;50.960;0.314;2022-07-22T06:42:54;4;4;
64627;PMS5003;59036;50.960;0.314;2022-07-22T06:45:22;4;3;
64627;PMS5003;59036;50.960;0.314;2022-07-22T06:47:49;4;4;
64627;PMS5003;59036;50.960;0.314;2022-07-22T06:50:17;6;6;
64627;PMS5003;59036;50.960;0.314;2022-07-22T06:52:44;6;5;
64627;PMS5003;59036;50.960;0.314;2022-07-22T06:55:11;5;4;
64627;PMS5003;59036;50.960;0.314;2022-07-22T06:57:38;4;4;
64627;PMS5003;59036;50.960;0.314;2022-07-22T07:00:06;3;3;
64627;PMS5003;59036;50.960;0.314;2022-07-22T07:02:34;5;4;
64627;PMS5003;59036;50.960;0.314;2022-07-22T07:05:02;7;6;
64627;PMS5003;59036;50.960;0.314;2022-07-22T07:07:30;6;3;
64627;PMS5003;59036;50.960;0.314;2022-07-22T07:09:58;5;5;
64627;PMS5003;59036;50.960;0.314;2022-07-22T07:12:25;4;4;
64627;PMS5003;59036;50.960;0.314;2022-07-22T07:14:52;6;5;
64627;PMS5003;59036;50.960;0.314;2022-07-22T07:17:19;7;6;
64627;PMS5003;59036;50.960;0.314;2022-07-22T07:19:46;7;7;
64627;PMS5003;59036;50.960;0.314;2022-07-22T07:22:13;6;6;
64627;PMS5003;59036;50.960;0.314;2022-07-22T07:24:40;6;6;
64627;PMS5003;59036;50.960;0.314;2022-07-22T07:27:07;6;5;
64627;PMS5003;59036;50.960;0.314;2022-07-22T07:29:35;6;6;
64627;PMS5003;59036;50.960;0.314;2022-07-22T07:32:02;5;5;
64627;PMS5003;59036;50.960;0.314;2022-07-22T07:34:30;4;4;
64627;PMS5003;59036;50.960;0.314;2022-07-22T07:36:57;7;6;
64627;PMS5003;59036;50.960;0.314;2022-07-22T07:39:24;8;8;
64627;PMS5003;59036;50.960;0.314;2022-07-22T07:41:51;7;7;
64627;PMS5003;59036;50.960;0.314;2022-07-22T07:44:18;6;6;
64627;PMS5003;59036;50.960;0.314;2022-07-22T07:46:45;7;7;
64627;PMS5003;59036;50.960;0.314;2022-07-22T07:49:13;7;6;
64627;PMS5003;59036;50.960;0.314;2022-07-22T07:51:40;8;7;
64627;PMS5003;59036;50.960;0.314;2022-07-22T07:54:07;6;6;
64627;PMS5003;59036;50.960;0.314;2022-07-22T07:56:35;8;7;
64627;PMS5003;59036;50.960;0.314;2022-07-22T07:59:02;7;7;
64627;PMS5003;59036;50.960;0.314;2022-07-22T08:01:30;11;9;
64627;PMS5003;59036;50.960;0.314;2022-07-22T08:03:58;7;6;
64627;PMS5003;59036;50.960;0.314;2022-07-22T08:06:25;6;6;
64627;PMS5003;59036;50.960;0.314;2022-07-22T08:08:52;9;7;
64627;PMS5003;59036;50.960;0.314;2022-07-22T08:11:19;10;8;
64627;PMS5003;59036;50.960;0.314;2022-07-22T08:13:46;5;4;
64627;PMS5003;59036;50.960;0.314;2022-07-22T08:16:14;8;8;
64627;PMS5003;59036;50.960;0.314;2022-07-22T08:18:42;10;9;
64627;PMS5003;59036;50.960;0.314;2022-07-22T08:21:09;8;8;
64627;PMS5003;59036;50.960;0.314;2022-07-22T08:23:36;10;9;
64627;PMS5003;59036;50.960;0.314;2022-07-22T08:26:03;9;9;
64627;PMS5003;59036;50.960;0.314;2022-07-22T08:28:29;8;7;
64627;PMS5003;59036;50.960;0.314;2022-07-22T08:30:56;8;8;
64627;PMS5003;59036;50.960;0.314;2022-07-22T08:33:24;10;9;
64627;PMS5003;59036;50.960;0.314;2022-07-22T08:35:51;7;7;
64627;PMS5003;59036;50.960;0.314;2022-07-22T08:38:18;7;7;
64627;PMS5003;59036;50.960;0.314;2022-07-22T08:40:45;7;7;
64627;PMS5003;59036;50.960;0.314;2022-07-22T08:43:13;6;5;
64627;PMS5003;59036;50.960;0.314;2022-07-22T08:45:40;10;9;
64627;PMS5003;59036;50.960;0.314;2022-07-22T08:48:07;8;7;
64627;PMS5003;59036;50.960;0.314;2022-07-22T08:50:34;9;9;
64627;PMS5003;59036;50.960;0.314;2022-07-22T08:53:02;6;6;
64627;PMS5003;59036;50.960;0.314;2022-07-22T08:55:29;9;9;
64627;PMS5003;59036;50.960;0.314;2022-07-22T08:57:56;11;10;
64627;PMS5003;59036;50.960;0.314;2022-07-22T09:00:23;8;8;
64627;PMS5003;59036;50.960;0.314;2022-07-22T09:02:50;7;7;
64627;PMS5003;59036;50.960;0.314;2022-07-22T09:05:17;8;7;
64627;PMS5003;59036;50.960;0.314;2022-07-22T09:07:45;7;7;
64627;PMS5003;59036;50.960;0.314;2022-07-22T09:10:14;8;7;
64627;PMS5003;59036;50.960;0.314;2022-07-22T09:12:52;11;9;
64627;PMS5003;59036;50.960;0.314;2022-07-22T09:15:28;8;8;
64627;PMS5003;59036;50.960;0.314;2022-07-22T09:17:56;9;9;
64627;PMS5003;59036;50.960;0.314;2022-07-22T09:20:25;8;8;
64627;PMS5003;59036;50.960;0.314;2022-07-22T09:22:53;7;7;
64627;PMS5003;59036;50.960;0.314;2022-07-22T09:25:24;10;10;
64627;PMS5003;59036;50.960;0.314;2022-07-22T09:27:55;7;7;
64627;PMS5003;59036;50.960;0.314;2022-07-22T09:30:35;8;8;
64627;PMS5003;59036;50.960;0.314;2022-07-22T09:33:05;8;8;
64627;PMS5003;59036;50.960;0.314;2022-07-22T09:35:33;9;8;
64627;PMS5003;59036;50.960;0.314;2022-07-22T09:38:02;7;7;
64627;PMS5003;59036;50.960;0.314;2022-07-22T09:40:32;6;6;
64627;PMS5003;59036;50.960;0.314;2022-07-22T09:43:02;5;4;
64627;PMS5003;59036;50.960;0.314;2022-07-22T09:45:33;4;4;
64627;PMS5003;59036;50.960;0.314;2022-07-22T09:48:01;8;8;
64627;PMS5003;59036;50.960;0.314;2022-07-22T09:50:29;7;7;
64627;PMS5003;59036;50.960;0.314;2022-07-22T09:52:59;8;8;
64627;PMS5003;59036;50.960;0.314;2022-07-22T09:55:27;7;7;
64627;PMS5003;59036;50.960;0.314;2022-07-22T09:57:56;9;9;
64627;PMS5003;59036;50.960;0.314;2022-07-22T10:00:25;7;6;
64627;PMS5003;59036;50.960;0.314;2022-07-22T10:02:55;7;6;
64627;PMS5003;59036;50.960;0.314;2022-07-22T10:05:24;7;7;
64627;PMS5003;59036;50.960;0.314;2022-07-22T10:07:52;9;8;
64627;PMS5003;59036;50.960;0.314;2022-07-22T10:10:21;8;7;
64627;PMS5003;59036;50.960;0.314;2022-07-22T10:12:50;7;7;
64627;PMS5003;59036;50.960;0.314;2022-07-22T10:15:19;7;7;
64627;PMS5003;59036;50.960;0.314;2022-07-22T10:17:47;6;6;
64627;PMS5003;59036;50.960;0.314;2022-07-22T10:20:17;6;6;
64627;PMS5003;59036;50.960;0.314;2022-07-22T10:22:46;7;7;
64627;PMS5003;59036;50.960;0.314;2022-07-22T10:25:16;6;6;
64627;PMS5003;59036;50.960;0.314;2022-07-22T10:27:44;6;6;
64627;PMS5003;59036;50.960;0.314;2022-07-22T10:30:13;7;6;
64627;PMS5003;59036;50.960;0.314;2022-07-22T10:32:42;4;4;
64627;PMS5003;59036;50.960;0.314;2022-07-22T10:35:26;5;5;
64627;PMS5003;59036;50.960;0.314;2022-07-22T10:37:54;5;5;
64627;PMS5003;59036;50.960;0.314;2022-07-22T10:40:24;7;7;
64627;PMS5003;59036;50.960;0.314;2022-07-22T10:43:03;6;6;
64627;PMS5003;59036;50.960;0.314;2022-07-22T10:45:32;5;5;
64627;PMS5003;59036;50.960;0.314;2022-07-22T10:48:01;5;5;
64627;PMS5003;59036;50.960;0.314;2022-07-22T10:50:47;5;5;
64627;PMS5003;59036;50.960;0.314;2022-07-22T10:53:18;5;5;
64627;PMS5003;59036;50.960;0.314;2022-07-22T10:56:04;5;5;
64627;PMS5003;59036;50.960;0.314;2022-07-22T10:58:42;6;6;
64627;PMS5003;59036;50.960;0.314;2022-07-22T11:01:13;7;7;
64627;PMS5003;59036;50.960;0.314;2022-07-22T11:03:43;8;8;
64627;PMS5003;59036;50.960;0.314;2022-07-22T11:06:14;6;6;
64627;PMS5003;59036;50.960;0.314;2022-07-22T11:08:47;6;6;
64627;PMS5003;59036;50.960;0.314;2022-07-22T11:11:16;7;7;
64627;PMS5003;59036;50.960;0.314;2022-07-22T11:13:44;5;5;
64627;PMS5003;59036;50.960;0.314;2022-07-22T11:16:15;4;4;
64627;PMS5003;59036;50.960;0.314;2022-07-22T11:18:45;4;4;
64627;PMS5003;59036;50.960;0.314;2022-07-22T11:21:16;5;5;
64627;PMS5003;59036;50.960;0.314;2022-07-22T11:23:44;5;5;
64627;PMS5003;59036;50.960;0.314;2022-07-22T11:26:15;3;3;
64627;PMS5003;59036;50.960;0.314;2022-07-22T11:28:44;5;5;
64627;PMS5003;59036;50.960;0.314;2022-07-22T11:31:14;4;4;
64627;PMS5003;59036;50.960;0.314;2022-07-22T11:33:44;4;3;
64627;PMS5003;59036;50.960;0.314;2022-07-22T11:36:11;4;4;
64627;PMS5003;59036;50.960;0.314;2022-07-22T11:38:41;3;3;
64627;PMS5003;59036;50.960;0.314;2022-07-22T11:41:10;3;3;
64627;PMS5003;59036;50.960;0.314;2022-07-22T11:43:39;11;11;
64627;PMS5003;59036;50.960;0.314;2022-07-22T11:46:08;3;3;
64627;PMS5003;59036;50.960;0.314;2022-07-22T11:48:36;3;3;
64627;PMS5003;59036;50.960;0.314;2022-07-22T11:51:04;4;4;
64627;PMS5003;59036;50.960;0.314;2022-07-22T11:53:32;4;4;
64627;PMS5003;59036;50.960;0.314;2022-07-22T11:56:00;2;2;
64627;PMS5003;59036;50.960;0.314;2022-07-22T11:58:38;4;4;
64627;PMS5003;59036;50.960;0.314;2022-07-22T12:01:07;3;3;
64627;PMS5003;59036;50.960;0.314;2022-07-22T12:03:37;3;3;
64627;PMS5003;59036;50.960;0.314;2022-07-22T12:06:07;2;2;
64627;PMS5003;59036;50.960;0.314;2022-07-22T12:08:39;6;4;
64627;PMS5003;59036;50.960;0.314;2022-07-22T12:11:09;4;4;
64627;PMS5003;59036;50.960;0.314;2022-07-22T12:13:40;2;2;
64627;PMS5003;59036;50.960;0.314;2022-07-22T12:16:25;4;4;
64627;PMS5003;59036;50.960;0.314;2022-07-22T12:18:54;5;5;
64627;PMS5003;59036;50.960;0.314;2022-07-22T12:21:24;6;5;
64627;PMS5003;59036;50.960;0.314;2022-07-22T12:23:54;6;6;
64627;PMS5003;59036;50.960;0.314;2022-07-22T12:26:40;5;5;
64627;PMS5003;59036;50.960;0.314;2022-07-22T12:29:14;4;4;
64627;PMS5003;59036;50.960;0.314;2022-07-22T12:31:43;2;2;
64627;PMS5003;59036;50.960;0.314;2022-07-22T12:34:11;5;5;
64627;PMS5003;59036;50.960;0.314;2022-07-22T12:36:42;3;3;
64627;PMS5003;59036;50.960;0.314;2022-07-22T12:39:11;4;4;
64627;PMS5003;59036;50.960;0.314;2022-07-22T12:41:49;3;3;
64627;PMS5003;59036;50.960;0.314;2022-07-22T12:44:18;4;4;
64627;PMS5003;59036;50.960;0.314;2022-07-22T12:46:47;6;6;
64627;PMS5003;59036;50.960;0.314;2022-07-22T12:49:17;5;5;
64627;PMS5003;59036;50.960;0.314;2022-07-22T12:52:19;5;5;
64627;PMS5003;59036;50.960;0.314;2022-07-22T12:54:46;6;6;
64627;PMS5003;59036;50.960;0.314;2022-07-22T12:57:13;5;5;
64627;PMS5003;59036;50.960;0.314;2022-07-22T12:59:40;5;4;
64627;PMS5003;59036;50.960;0.314;2022-07-22T13:02:17;5;5;
64627;PMS5003;59036;50.960;0.314;2022-07-22T13:04:45;4;4;
64627;PMS5003;59036;50.960;0.314;2022-07-22T13:07:12;4;4;
64627;PMS5003;59036;50.960;0.314;2022-07-22T13:09:39;5;4;
64627;PMS5003;59036;50.960;0.314;2022-07-22T13:12:06;4;4;
64627;PMS5003;59036;50.960;0.314;2022-07-22T13:14:33;3;3;
64627;PMS5003;59036;50.960;0.314;2022-07-22T13:17:00;4;4;
64627;PMS5003;59036;50.960;0.314;2022-07-22T13:19:27;5;4;
64627;PMS5003;59036;50.960;0.314;2022-07-22T13:21:54;5;4;
64627;PMS5003;59036;50.960;0.314;2022-07-22T13:24:21;6;5;
64627;PMS5003;59036;50.960;0.314;2022-07-22T13:26:47;5;5;
64627;PMS5003;59036;50.960;0.314;2022-07-22T13:29:14;6;6;
64627;PMS5003;59036;50.960;0.314;2022-07-22T13:31:43;5;5;
64627;PMS5003;59036;50.960;0.314;2022-07-22T13:34:10;3;3;
64627;PMS5003;59036;50.960;0.314;2022-07-22T13:36:37;6;6;
64627;PMS5003;59036;50.960;0.314;2022-07-22T13:39:04;4;4;
64627;PMS5003;59036;50.960;0.314;2022-07-22T13:41:31;9;8;
64627;PMS5003;59036;50.960;0.314;2022-07-22T13:43:58;6;5;
64627;PMS5003;59036;50.960;0.314;2022-07-22T13:46:25;5;4;
64627;PMS5003;59036;50.960;0.314;2022-07-22T13:48:52;4;4;
64627;PMS5003;59036;50.960;0.314;2022-07-22T13:51:19;5;4;
64627;PMS5003;59036;50.960;0.314;2022-07-22T13:53:46;4;3;
64627;PMS5003;59036;50.960;0.314;2022-07-22T13:56:13;6;6;
64627;PMS5003;59036;50.960;0.314;2022-07-22T13:58:40;5;5;
64627;PMS5003;59036;50.960;0.314;2022-07-22T14:01:07;7;7;
64627;PMS5003;59036;50.960;0.314;2022-07-22T14:03:35;3;3;
64627;PMS5003;59036;50.960;0.314;2022-07-22T14:06:03;6;6;
64627;PMS5003;59036;50.960;0.314;2022-07-22T14:08:32;4;4;
64627;PMS5003;59036;50.960;0.314;2022-07-22T14:10:58;4;4;
64627;PMS5003;59036;50.960;0.314;2022-07-22T14:13:26;5;5;
64627;PMS5003;59036;50.960;0.314;2022-07-22T14:15:53;5;5;
64627;PMS5003;59036;50.960;0.314;2022-07-22T14:18:21;5;5;
64627;PMS5003;59036;50.960;0.314;2022-07-22T14:20:48;6;6;
64627;PMS5003;59036;50.960;0.314;2022-07-22T14:23:16;4;4;
64627;PMS5003;59036;50.960;0.314;2022-07-22T14:25:43;6;5;
64627;PMS5003;59036;50.960;0.314;2022-07-22T14:28:11;3;3;
64627;PMS5003;59036;50.960;0.314;2022-07-22T14:30:37;4;4;
64627;PMS5003;59036;50.960;0.314;2022-07-22T14:33:04;6;5;
64627;PMS5003;59036;50.960;0.314;2022-07-22T14:35:31;5;4;
64627;PMS5003;59036;50.960;0.314;2022-07-22T14:37:58;5;5;
64627;PMS5003;59036;50.960;0.314;2022-07-22T14:40:26;6;6;
64627;PMS5003;59036;50.960;0.314;2022-07-22T14:42:53;4;4;
64627;PMS5003;59036;50.960;0.314;2022-07-22T14:45:20;5;4;
64627;PMS5003;59036;50.960;0.314;2022-07-22T14:47:47;4;4;
64627;PMS5003;59036;50.960;0.314;2022-07-22T14:50:14;6;5;
64627;PMS5003;59036;50.960;0.314;2022-07-22T14:52:41;3;3;
64627;PMS5003;59036;50.960;0.314;2022-07-22T14:55:08;4;4;
64627;PMS5003;59036;50.960;0.314;2022-07-22T14:57:35;4;4;
64627;PMS5003;59036;50.960;0.314;2022-07-22T15:00:02;6;6;
64627;PMS5003;59036;50.960;0.314;2022-07-22T15:02:31;5;5;
64627;PMS5003;59036;50.960;0.314;2022-07-22T15:04:57;4;4;
64627;PMS5003;59036;50.960;0.314;2022-07-22T15:07:24;4;4;
64627;PMS5003;59036;50.960;0.314;2022-07-22T15:09:51;5;5;
64627;PMS5003;59036;50.960;0.314;2022-07-22T15:12:18;5;5;
64627;PMS5003;59036;50.960;0.314;2022-07-22T15:14:45;3;3;
64627;PMS5003;59036;50.960;0.314;2022-07-22T15:17:12;4;4;
64627;PMS5003;59036;50.960;0.314;2022-07-22T15:19:39;6;5;
64627;PMS5003;59036;50.960;0.314;2022-07-22T15:22:06;5;5;
64627;PMS5003;59036;50.960;0.314;2022-07-22T15:24:32;7;7;
64627;PMS5003;59036;50.960;0.314;2022-07-22T15:26:59;14;14;
64627;PMS5003;59036;50.960;0.314;2022-07-22T15:29:26;17;16;
64627;PMS5003;59036;50.960;0.314;2022-07-22T15:31:53;18;18;
64627;PMS5003;59036;50.960;0.314;2022-07-22T15:34:20;13;12;
64627;PMS5003;59036;50.960;0.314;2022-07-22T15:36:47;16;16;
64627;PMS5003;59036;50.960;0.314;2022-07-22T15:39:14;14;12;
64627;PMS5003;59036;50.960;0.314;2022-07-22T15:41:41;12;12;
64627;PMS5003;59036;50.960;0.314;2022-07-22T15:44:08;11;11;
64627;PMS5003;59036;50.960;0.314;2022-07-22T15:46:36;11;11;
64627;PMS5003;59036;50.960;0.314;2022-07-22T15:49:02;6;6;
64627;PMS5003;59036;50.960;0.314;2022-07-22T15:51:29;5;5;
64627;PMS5003;59036;50.960;0.314;2022-07-22T15:53:57;4;4;
64627;PMS5003;59036;50.960;0.314;2022-07-22T15:56:24;5;5;
64627;PMS5003;59036;50.960;0.314;2022-07-22T15:58:51;5;5;
64627;PMS5003;59036;50.960;0.314;2022-07-22T16:01:18;4;3;
64627;PMS5003;59036;50.960;0.314;2022-07-22T16:03:44;4;4;
64627;PMS5003;59036;50.960;0.314;2022-07-22T16:06:11;7;6;
64627;PMS5003;59036;50.960;0.314;2022-07-22T16:08:38;5;5;
64627;PMS5003;59036;50.960;0.314;2022-07-22T16:11:06;9;7;
64627;PMS5003;59036;50.960;0.314;2022-07-22T16:13:33;6;5;
64627;PMS5003;59036;50.960;0.314;2022-07-22T16:16:00;6;6;
64627;PMS5003;59036;50.960;0.314;2022-07-22T16:18:27;7;7;
64627;PMS5003;59036;50.960;0.314;2022-07-22T16:20:54;5;5;
64627;PMS5003;59036;50.960;0.314;2022-07-22T16:23:21;5;5;
64627;PMS5003;59036;50.960;0.314;2022-07-22T16:25:48;6;6;
64627;PMS5003;59036;50.960;0.314;2022-07-22T16:28:15;6;5;
64627;PMS5003;59036;50.960;0.314;2022-07-22T16:30:42;5;5;
64627;PMS5003;59036;50.960;0.314;2022-07-22T16:33:09;5;5;
64627;PMS5003;59036;50.960;0.314;2022-07-22T16:35:35;9;8;
64627;PMS5003;59036;50.960;0.314;2022-07-22T16:38:02;6;6;
64627;PMS5003;59036;50.960;0.314;2022-07-22T16:40:29;8;7;
64627;PMS5003;59036;50.960;0.314;2022-07-22T16:42:56;7;7;
64627;PMS5003;59036;50.960;0.314;2022-07-22T16:45:24;7;6;
64627;PMS5003;59036;50.960;0.314;2022-07-22T16:47:52;6;6;
64627;PMS5003;59036;50.960;0.314;2022-07-22T16:50:19;6;6;
64627;PMS5003;59036;50.960;0.314;2022-07-22T16:52:47;6;6;
64627;PMS5003;59036;50.960;0.314;2022-07-22T16:55:14;7;7;
64627;PMS5003;59036;50.960;0.314;2022-07-22T16:57:40;6;6;